Latest Weather Observations for Creal Reef

IDQ60801

Issued at 11:02 am EST Sunday 7 February 2016 (issued every 30 minutes, with the page automatically refreshed every 10 minutes)

About weather observations | Map of weather stations | Latest weather observations for QLD | Other Formats
Station Details ID: 200736 Name: CREAL REEF Lat: -20.53 Lon: 150.38 Height: 1.7 m
Data from the previous 72 hours. | See also: Recent months for locations in Queensland
Date/Time
EST
Temp
°C
App
Temp
°C
Dew
Point
Rel
Hum
%
Delta-T
°C
Wind Press
QNH
hPa
Press
MSL
hPa
Rain
since 9 am
mm
Dir
 
Spd
km/h
Gust
km/h
Spd
kts
Gust
kts
07/11:00am 28.5 - - - - NE 20 22 11 12 1007.0 - -
07/10:30am 28.5 - - - - NE 20 22 11 12 1007.0 - -
07/10:20am 28.5 - - - - NE 20 - 11 - - 1007.0 -
07/10:00am 28.4 - - - - NE 19 20 10 11 1007.0 - -
07/09:30am 28.4 - - - - NE 17 19 9 10 1007.2 - -
07/09:20am 28.5 - - - - NE 17 - 9 - - 1007.1 -
07/09:00am 28.4 - - - - ENE 13 15 7 8 1007.0 - -
07/08:30am 28.3 - - - - ENE 15 17 8 9 1006.7 - -
07/08:20am 28.3 - - - - ENE 17 - 9 - - 1006.5 -
07/08:00am 28.2 - - - - NE 15 17 8 9 1006.1 - -
07/07:30am 28.3 - - - - E 19 24 10 13 1005.9 - -
07/07:20am 28.0 - - - - ENE 22 - 12 - - 1005.4 -
07/07:00am 28.4 - - - - E 22 26 12 14 1005.7 - -
07/06:30am 28.1 - - - - ENE 22 26 12 14 1005.7 - -
07/06:20am 28.1 - - - - ENE 20 - 11 - - 1005.6 -
07/06:00am 28.1 - - - - E 24 26 13 14 1005.2 - -
07/05:30am 28.0 - - - - E 22 26 12 14 1005.0 - -
07/05:20am 28.0 - - - - E 22 - 12 - - 1005.0 -
07/05:00am 28.2 - - - - ENE 24 26 13 14 1005.0 - -
07/04:30am 28.1 - - - - CALM 0 6 0 3 1004.8 - -
07/04:20am 28.1 - - - - ENE 2 - 1 - - 1004.8 -
07/04:00am 28.0 - - - - ENE 2 6 1 3 1004.7 - -
07/03:30am 28.0 - - - - ENE 2 6 1 3 1004.3 - -
07/03:20am 28.0 - - - - ENE 2 - 1 - - 1004.4 -
07/03:00am 28.0 - - - - E 2 6 1 3 1004.6 - -
07/02:30am 28.1 - - - - CALM 0 6 0 3 1004.7 - -
07/02:20am 27.9 - - - - CALM 0 - 0 - - 1004.8 -
07/02:00am 27.9 - - - - CALM 0 6 0 3 1005.0 - -
07/01:30am 28.0 - - - - E 2 6 1 3 1005.2 - -
07/01:20am 28.0 - - - - CALM 0 - 0 - - 1005.3 -
07/01:00am 28.1 - - - - CALM 0 4 0 2 1005.5 - -
07/12:30am 28.0 - - - - CALM 0 4 0 2 1005.8 - -
07/12:20am 28.1 - - - - CALM 0 - 0 - - 1005.9 -
07/12:00am 28.1 - - - - CALM 0 6 0 3 1006.0 - -
 
Date/Time
EST
Temp
°C
App
Temp
°C
Dew
Point
Rel
Hum
%
Delta-T
°C
Wind Press
QNH
hPa
Press
MSL
hPa
Rain
since 9 am
mm
Dir
 
Spd
km/h
Gust
km/h
Spd
kts
Gust
kts
06/11:30pm 28.1 - - - - E 2 6 1 3 1006.4 - -
06/11:20pm 28.1 - - - - CALM 0 - 0 - - 1006.5 -
06/11:00pm 28.1 - - - - CALM 0 4 0 2 1006.5 - -
06/10:30pm 28.2 - - - - CALM 0 4 0 2 1006.8 - -
06/10:20pm 28.1 - - - - CALM 0 - 0 - - 1006.7 -
06/10:00pm 28.1 - - - - E 2 4 1 2 1006.6 - -
06/09:30pm 28.2 - - - - CALM 0 4 0 2 1006.3 - -
06/09:20pm 28.1 - - - - CALM 0 - 0 - - 1006.2 -
06/09:00pm 28.1 - - - - CALM 0 4 0 2 1006.1 - -
06/08:30pm 28.3 - - - - CALM 0 4 0 2 1006.1 - -
06/08:20pm 28.2 - - - - CALM 0 - 0 - - 1006.1 -
06/08:00pm 28.3 - - - - SE 6 9 3 5 1005.8 - -
06/07:30pm 28.2 - - - - CALM 0 2 0 1 1005.2 - -
06/07:20pm 28.2 - - - - CALM 0 - 0 - - 1005.1 -
06/07:00pm 28.0 - - - - CALM 0 4 0 2 1004.8 - -
06/06:30pm 27.9 - - - - CALM 0 4 0 2 1004.1 - -
06/06:20pm 27.9 - - - - ESE 2 - 1 - - 1003.9 -
06/06:00pm 28.0 - - - - CALM 0 4 0 2 1003.8 - -
06/05:30pm 28.0 - - - - CALM 0 0 0 0 1003.4 - -
06/05:20pm 28.1 - - - - CALM 0 - 0 - - 1003.4 -
06/05:00pm 27.9 - - - - CALM 0 0 0 0 1003.0 - -
06/04:30pm 27.9 - - - - ENE 4 6 2 3 1002.8 - -
06/04:20pm 27.9 - - - - ENE 6 - 3 - - 1002.7 -
06/04:00pm 27.9 - - - - NE 7 7 4 4 1002.8 - -
06/03:30pm 28.0 - - - - ENE 9 11 5 6 1002.8 - -
06/03:20pm 28.0 - - - - ENE 11 - 6 - - 1002.9 -
06/03:00pm 28.2 - - - - ENE 13 17 7 9 1003.2 - -
06/02:30pm 28.5 - - - - NE 9 13 5 7 1003.7 - -
06/02:20pm 28.6 - - - - NNE 6 - 3 - - 1003.6 -
06/02:00pm 28.8 - - - - N 6 7 3 4 1003.8 - -
06/01:30pm 29.1 - - - - CALM 0 0 0 0 1003.8 - -
06/01:20pm 30.0 - - - - CALM 0 - 0 - - 1003.8 -
06/01:00pm 29.9 - - - - CALM 0 0 0 0 1003.7 - -
06/12:30pm 28.7 - - - - NNW 7 7 4 4 1004.0 - -
06/12:20pm 28.8 - - - - NNW 6 - 3 - - 1004.2 -
06/12:00pm 28.6 - - - - NNW 7 9 4 5 1004.6 - -
06/11:30am 28.6 - - - - N 7 7 4 4 1004.5 - -
06/11:20am 28.5 - - - - N 7 - 4 - - 1004.6 -
06/11:00am 28.3 - - - - N 9 11 5 6 1004.6 - -
06/10:30am 28.1 - - - - N 9 11 5 6 1004.8 - -
06/10:20am 28.1 - - - - NNE 7 - 4 - - 1004.8 -
06/10:00am 28.2 - - - - NNW 7 9 4 5 1004.8 - -
06/09:30am 28.2 - - - - WNW 6 7 3 4 1004.5 - -
06/09:20am 28.0 - - - - WNW 7 - 4 - - 1004.5 -
06/09:00am 27.9 - - - - WNW 9 11 5 6 1004.5 - -
06/08:30am 27.7 - - - - WNW 9 11 5 6 1004.2 - -
06/08:20am 27.7 - - - - WNW 7 - 4 - - 1004.0 -
06/08:00am 27.6 - - - - W 9 13 5 7 1003.8 - -
06/07:30am 27.4 - - - - W 13 15 7 8 1003.4 - -
06/07:20am 27.3 - - - - WNW 13 - 7 - - 1003.3 -
06/07:00am 27.0 - - - - WNW 15 19 8 10 1003.1 - -
06/06:30am 26.7 - - - - NW 20 24 11 13 1003.4 - -
06/06:20am 26.6 - - - - NW 22 - 12 - - 1003.3 -
06/06:00am 26.5 - - - - NNW 30 35 16 19 1003.4 - -
06/05:30am 26.0 - - - - NNW 39 46 21 25 1003.5 - -
06/05:20am 25.9 - - - - NNW 39 - 21 - - 1003.3 -
06/05:00am 25.5 - - - - NNW 43 50 23 27 1003.0 - -
06/04:43am 25.6 - - - - N 43 65 23 35 1002.3 - -
06/04:30am 25.3 - - - - NNW 63 72 34 39 1001.9 - -
06/04:29am 25.4 - - - - NNW 63 72 34 39 1001.9 - -
06/04:28am 25.9 - - - - N 41 72 22 39 1001.8 - -
06/04:20am 28.5 - - - - N 33 - 18 - - 1001.3 -
06/04:00am 28.4 - - - - N 30 35 16 19 1002.1 - -
06/03:30am 28.4 - - - - N 28 32 15 17 1002.0 - -
06/03:20am 28.4 - - - - N 28 - 15 - - 1001.9 -
06/03:00am 28.4 - - - - N 26 30 14 16 1001.7 - -
06/02:30am 28.4 - - - - N 26 32 14 17 1001.5 - -
06/02:20am 28.5 - - - - N 24 - 13 - - 1001.4 -
06/02:00am 28.6 - - - - N 30 33 16 18 1001.7 - -
06/01:30am 28.5 - - - - N 32 37 17 20 1001.9 - -
06/01:20am 28.6 - - - - N 30 - 16 - - 1002.0 -
06/01:00am 28.5 - - - - N 28 32 15 17 1002.0 - -
06/12:30am 28.5 - - - - NNE 24 30 13 16 1002.6 - -
06/12:20am 28.5 - - - - NNE 24 - 13 - - 1002.7 -
06/12:00am 28.5 - - - - NNE 24 30 13 16 1003.1 - -
 
Date/Time
EST
Temp
°C
App
Temp
°C
Dew
Point
Rel
Hum
%
Delta-T
°C
Wind Press
QNH
hPa
Press
MSL
hPa
Rain
since 9 am
mm
Dir
 
Spd
km/h
Gust
km/h
Spd
kts
Gust
kts
05/11:30pm 28.5 - - - - NNE 28 32 15 17 1003.3 - -
05/11:20pm 28.5 - - - - NNE 26 - 14 - - 1003.5 -
05/11:00pm 28.5 - - - - NNE 24 28 13 15 1003.8 - -
05/10:30pm 27.8 - - - - ENE 19 20 10 11 1004.0 - -
05/10:20pm 28.0 - - - - NE 19 - 10 - - 1004.2 -
05/10:00pm 28.1 - - - - NE 19 22 10 12 1004.3 - -
05/09:30pm 28.3 - - - - NNE 19 20 10 11 1004.4 - -
05/09:20pm 28.4 - - - - NNE 20 - 11 - - 1004.4 -
05/09:00pm 28.3 - - - - NE 19 22 10 12 1004.5 - -
05/08:30pm 28.3 - - - - NNE 17 20 9 11 1004.4 - -
05/08:20pm 28.5 - - - - NNE 19 - 10 - - 1004.3 -
05/08:00pm 28.5 - - - - NNE 17 20 9 11 1004.1 - -
05/07:30pm 28.4 - - - - NNE 19 22 10 12 1003.9 - -
05/07:20pm 28.3 - - - - NNE 19 - 10 - - 1003.7 -
05/07:00pm 28.2 - - - - NNE 19 20 10 11 1003.3 - -
05/06:30pm 28.2 - - - - N 19 20 10 11 1002.8 - -
05/06:20pm 28.1 - - - - N 19 - 10 - - 1002.7 -
05/06:00pm 28.1 - - - - N 19 20 10 11 1002.4 - -
05/05:30pm 28.2 - - - - N 15 17 8 9 1002.0 - -
05/05:20pm 28.2 - - - - N 17 - 9 - - 1002.0 -
05/05:00pm 28.1 - - - - N 17 19 9 10 1001.8 - -
05/04:30pm 28.2 - - - - N 17 20 9 11 1001.8 - -
05/04:20pm 28.2 - - - - N 15 - 8 - - 1001.8 -
05/04:00pm 28.1 - - - - N 13 15 7 8 1001.4 - -
05/03:30pm 28.1 - - - - N 15 17 8 9 1001.6 - -
05/03:20pm 28.1 - - - - NNE 15 - 8 - - 1001.6 -
05/03:00pm 28.1 - - - - N 17 20 9 11 1001.8 - -
05/02:30pm 28.2 - - - - N 19 20 10 11 1002.2 - -
05/02:20pm 28.2 - - - - N 20 - 11 - - 1002.4 -
05/02:00pm 27.9 - - - - N 22 26 12 14 1002.6 - -
05/01:30pm 28.0 - - - - N 26 30 14 16 1003.0 - -
05/01:20pm 28.0 - - - - N 28 - 15 - - 1003.1 -
05/01:00pm 28.1 - - - - N 28 30 15 16 1003.2 - -
05/12:30pm 28.1 - - - - N 24 28 13 15 1003.3 - -
05/12:20pm 28.1 - - - - N 22 - 12 - - 1003.3 -
05/12:00pm 27.9 - - - - NNE 19 20 10 11 1003.4 - -
05/11:30am 27.6 - - - - N 17 19 9 10 1003.4 - -
05/11:20am 27.8 - - - - N 15 - 8 - - 1003.5 -
05/11:00am 27.7 - - - - NNE 15 17 8 9 1003.8 - -
05/10:30am 27.4 - - - - NNE 17 19 9 10 1004.1 - -
05/10:20am 27.3 - - - - NE 19 - 10 - - 1004.1 -
05/10:00am 27.2 - - - - NE 22 24 12 13 1004.2 - -
05/09:30am 27.3 - - - - NNE 22 26 12 14 1004.5 - -
05/09:20am 27.1 - - - - NNE 20 - 11 - - 1004.6 -
05/09:00am 27.1 - - - - NNE 19 20 10 11 1004.7 - -
05/08:30am 26.9 - - - - NE 20 22 11 12 1004.6 - -
05/08:20am 26.9 - - - - NE 22 - 12 - - 1004.6 -
05/08:00am 26.9 - - - - NE 20 24 11 13 1004.4 - -
05/07:30am 26.9 - - - - NE 19 20 10 11 1004.4 - -
05/07:20am 26.7 - - - - NE 17 - 9 - - 1004.3 -
05/07:00am 26.7 - - - - NE 15 17 8 9 1004.0 - -
05/06:30am 26.4 - - - - NE 13 15 7 8 1003.4 - -
05/06:20am 26.4 - - - - ENE 13 - 7 - - 1003.2 -
05/06:00am 26.2 - - - - E 9 11 5 6 1003.0 - -
05/05:30am 25.9 - - - - SSE 7 11 4 6 1002.7 - -
05/05:20am 25.8 - - - - S 7 - 4 - - 1002.6 -
05/05:00am 25.7 - - - - SSE 7 9 4 5 1002.5 - -
05/04:30am 25.5 - - - - S 13 17 7 9 1002.0 - -
05/04:20am 25.3 - - - - SSE 13 - 7 - - 1002.1 -
05/04:00am 25.0 - - - - S 15 17 8 9 1001.9 - -
05/03:30am 24.9 - - - - SW 22 33 12 18 1002.3 - -
05/03:20am 24.9 - - - - SSW 15 - 8 - - 1002.2 -
05/03:00am 25.4 - - - - SW 33 41 18 22 1002.3 - -
05/02:49am 25.9 - - - - SW 28 39 15 21 1002.1 - -
05/02:30am 28.5 - - - - NNW 17 20 9 11 1001.8 - -
05/02:20am 28.5 - - - - NNW 17 - 9 - - 1002.1 -
05/02:00am 28.4 - - - - N 19 22 10 12 1001.6 - -
05/01:30am 28.4 - - - - N 20 22 11 12 1002.1 - -
05/01:20am 28.4 - - - - N 22 - 12 - - 1002.2 -
05/01:00am 28.6 - - - - NNW 24 28 13 15 1002.6 - -
05/12:30am 28.5 - - - - N 28 32 15 17 1002.7 - -
05/12:20am 28.5 - - - - N 26 - 14 - - 1003.0 -
05/12:00am 28.5 - - - - N 24 30 13 16 1003.2 - -
 
Date/Time
EST
Temp
°C
App
Temp
°C
Dew
Point
Rel
Hum
%
Delta-T
°C
Wind Press
QNH
hPa
Press
MSL
hPa
Rain
since 9 am
mm
Dir
 
Spd
km/h
Gust
km/h
Spd
kts
Gust
kts
04/11:30pm 28.6 - - - - N 28 32 15 17 1003.7 - -
04/11:20pm 28.6 - - - - N 26 - 14 - - 1003.9 -
04/11:00pm 28.4 - - - - N 28 32 15 17 1004.0 - -
04/10:30pm 28.4 - - - - N 30 32 16 17 1004.2 - -
04/10:20pm 28.4 - - - - N 28 - 15 - - 1004.2 -
04/10:00pm 28.4 - - - - N 28 32 15 17 1004.5 - -
04/09:30pm 28.4 - - - - N 28 33 15 18 1004.4 - -
04/09:20pm 28.3 - - - - N 26 - 14 - - 1004.2 -
04/09:00pm 28.4 - - - - N 26 28 14 15 1004.1 - -
04/08:30pm 28.3 - - - - N 26 30 14 16 1003.9 - -
04/08:20pm 28.3 - - - - NNW 26 - 14 - - 1003.8 -
04/08:00pm 28.3 - - - - NNW 26 30 14 16 1003.8 - -
04/07:30pm 28.1 - - - - NNW 28 32 15 17 1003.7 - -
04/07:20pm 28.2 - - - - NNW 28 - 15 - - 1003.4 -
04/07:00pm 28.2 - - - - NNW 26 30 14 16 1003.2 - -
04/06:30pm 28.2 - - - - NNW 28 30 15 16 1003.0 - -
04/06:20pm 28.2 - - - - NNW 28 - 15 - - 1002.9 -
04/06:00pm 28.2 - - - - NNW 26 30 14 16 1002.6 - -
04/05:30pm 28.1 - - - - NNW 26 30 14 16 1002.6 - -
04/05:20pm 28.0 - - - - NNW 28 - 15 - - 1002.6 -
04/05:00pm 28.1 - - - - NNW 24 28 13 15 1002.6 - -
04/04:30pm 28.1 - - - - NNW 22 26 12 14 1002.3 - -
04/04:20pm 28.2 - - - - NNW 24 - 13 - - 1002.3 -
04/04:00pm 27.9 - - - - NNW 22 26 12 14 1002.3 - -
04/03:30pm 27.9 - - - - NNW 22 28 12 15 1002.5 - -
04/03:20pm 27.8 - - - - NNW 24 - 13 - - 1002.6 -
04/03:00pm 27.9 - - - - NNW 20 26 11 14 1002.7 - -
04/02:30pm 27.9 - - - - NNW 20 24 11 13 1002.7 - -
04/02:20pm 27.9 - - - - NNW 20 - 11 - - 1002.9 -
04/02:00pm 27.9 - - - - NNW 19 22 10 12 1003.0 - -
04/01:30pm 27.6 - - - - N 19 22 10 12 1003.2 - -
04/01:20pm 27.6 - - - - N 19 - 10 - - 1003.3 -
04/01:00pm 27.3 - - - - N 20 24 11 13 1003.5 - -
04/12:30pm 27.5 - - - - NNW 30 33 16 18 1003.8 - -
04/12:20pm 27.9 - - - - NNW 28 - 15 - - 1004.0 -
04/12:00pm 27.8 - - - - N 22 26 12 14 1004.0 - -
04/11:30am 27.5 - - - - N 20 24 11 13 1004.0 - -
04/11:20am 27.4 - - - - N 22 - 12 - - 1004.0 -

Other Formats:

Comma delimited format used in spreadsheet applications
http://www.bom.gov.au/fwo/IDQ60801/IDQ60801.94371.axf

JavaScript Object Notation format (JSON) in row-major order
http://www.bom.gov.au/fwo/IDQ60801/IDQ60801.94371.json